South Boardman, Michigan
Current Conditions -  °F | °C
As of 10:53 AM on Monday 24 Nov 2014 (Local Time) from KTVC Reporting Station
Overcast Overcast  
Wind Chill: 47°   Ceiling: 500
Heat Index: 47°   Visibility: 10mi
Dew Point: 45°   Wind: 0mph
Humidity: 93%   Direction: NA
Pressure: 29"   Gusts: NA
Location:  44.64°N, 85.28°W
Report Text: KTVC 241553Z 00000KT 10SM OVC005 08/07 A2900 RMK AO2 SLP822 T00830072
Loading
Personal Weather Stations






























Interactive Weather Map New forecast layout! Learn more

10-Day Weather Forecast

Advertisements
Track Severe Weather on mobile